Time;durP1;ratioP1;P1;durP2;ratioP2;P2;SDS_P1;SDS_P2;PMS_P1;PMS_P2;Temp;Humidity;BMP_temperature;BMP_pressure;BME280_temperature;BME280_humidity;BME280_pressure;Samples;Min_cycle;Max_cycle;Signal;HPM_P1;HPM_P2
2022/07/30 00:00:33;;;;;;;7.60;3.42;;;;;;;23.48;46.87;100595.72;4146803;28;20041;-61
2022/07/30 00:02:36;;;;;;;10.10;3.35;;;;;;;23.41;47.23;100586.25;4142103;28;20410;-61
2022/07/30 00:04:39;;;;;;;8.18;3.55;;;;;;;23.41;47.19;100585.38;4147880;28;20049;-61
2022/07/30 00:06:42;;;;;;;8.85;3.60;;;;;;;23.39;47.32;100589.88;4148272;28;20136;-61
2022/07/30 00:08:46;;;;;;;6.75;3.13;;;;;;;23.39;47.05;100581.91;4140697;28;20042;-61
2022/07/30 00:10:50;;;;;;;5.88;3.05;;;;;;;23.32;47.23;100592.75;4141556;28;20041;-61
2022/07/30 00:12:53;;;;;;;5.70;2.63;;;;;;;23.32;47.15;100587.47;4146187;28;20038;-62
2022/07/30 00:14:55;;;;;;;7.53;2.95;;;;;;;23.31;47.38;100587.50;4148108;28;20033;-62
2022/07/30 00:16:58;;;;;;;7.25;3.38;;;;;;;23.28;47.76;100593.78;4149063;28;20556;-62
2022/07/30 00:19:02;;;;;;;5.22;3.03;;;;;;;23.26;48.08;100590.34;4155360;28;20531;-62
2022/07/30 00:21:08;;;;;;;6.85;3.30;;;;;;;23.21;47.50;100592.28;4138169;28;20046;-62
2022/07/30 00:23:14;;;;;;;5.38;2.90;;;;;;;23.10;47.59;100578.50;4149792;28;20054;-62
2022/07/30 00:25:19;;;;;;;4.80;2.60;;;;;;;23.10;47.09;100578.50;4140486;28;20550;-62
2022/07/30 00:27:21;;;;;;;10.23;3.03;;;;;;;23.06;47.11;100576.91;4141945;28;20034;-62
2022/07/30 00:29:25;;;;;;;7.18;2.90;;;;;;;23.08;46.64;100575.06;4147418;28;20045;-62
2022/07/30 00:31:30;;;;;;;5.45;2.50;;;;;;;23.01;46.74;100577.94;4142027;28;20042;-62
2022/07/30 00:33:33;;;;;;;5.85;2.58;;;;;;;23.01;46.79;100575.28;4144631;28;20045;-62
2022/07/30 00:35:36;;;;;;;7.47;2.63;;;;;;;23.04;48.00;100573.44;4140717;28;20456;-61
2022/07/30 00:37:39;;;;;;;5.35;2.80;;;;;;;23.06;48.33;100571.59;4139569;28;20037;-62
2022/07/30 00:39:42;;;;;;;5.70;3.40;;;;;;;23.07;48.40;100568.91;4148790;28;20038;-62
2022/07/30 00:41:58;;;;;;;4.45;2.38;;;;;;;23.06;47.38;100561.00;4161822;28;20037;-62
2022/07/30 00:44:01;;;;;;;4.80;2.55;;;;;;;22.98;47.36;100561.25;4145967;28;20073;-62
2022/07/30 00:46:04;;;;;;;6.25;2.50;;;;;;;23.00;47.65;100565.59;4130872;28;20133;-61
2022/07/30 00:48:07;;;;;;;5.05;2.90;;;;;;;22.99;47.63;100565.63;4155264;28;20033;-61
2022/07/30 00:50:12;;;;;;;5.68;2.60;;;;;;;22.94;47.89;100563.16;4177891;28;20057;-61
2022/07/30 00:52:15;;;;;;;4.90;2.60;;;;;;;22.83;48.37;100566.16;4145099;28;20038;-61
2022/07/30 00:54:19;;;;;;;6.72;2.58;;;;;;;22.77;48.65;100565.53;4147947;28;20529;-61
2022/07/30 00:56:22;;;;;;;5.28;3.10;;;;;;;22.67;48.51;100559.69;4144750;28;20049;-62
2022/07/30 00:58:27;;;;;;;10.20;2.33;;;;;;;22.61;48.27;100559.91;4147509;28;20460;-61
2022/07/30 01:00:30;;;;;;;5.75;2.75;;;;;;;22.55;47.55;100557.47;4138931;28;20037;-61
2022/07/30 01:02:34;;;;;;;;;;;;;;;22.35;47.68;100556.34;4146542;28;20077;-61
2022/07/30 01:04:37;;;;;;;4.85;2.50;;;;;;;22.30;47.28;100555.59;4144946;28;19922;-62
2022/07/30 01:06:40;;;;;;;8.48;2.90;;;;;;;22.30;47.09;100551.16;4136102;28;20057;-61
2022/07/30 01:08:43;;;;;;;5.00;2.45;;;;;;;22.26;46.89;100552.19;4159326;28;20148;-61
2022/07/30 01:10:46;;;;;;;5.35;2.58;;;;;;;22.30;46.91;100550.31;4164714;28;20045;-62
2022/07/30 01:12:51;;;;;;;5.25;2.45;;;;;;;22.30;47.46;100545.00;4146473;28;20026;-61
2022/07/30 01:14:57;;;;;;;3.67;2.20;;;;;;;22.30;48.27;100552.97;4146914;28;20069;-62
2022/07/30 01:17:01;;;;;;;3.85;2.13;;;;;;;22.28;48.43;100544.19;4146725;28;20053;-62
2022/07/30 01:21:37;;;;;;;8.38;2.70;;;;;;;22.26;48.90;100546.88;4146864;28;20042;-62
2022/07/30 01:23:44;;;;;;;6.80;2.70;;;;;;;22.24;48.52;100551.38;4146727;28;20073;-61
2022/07/30 01:25:54;;;;;;;3.28;2.40;;;;;;;22.20;48.72;100555.03;4144124;28;20514;-63
2022/07/30 01:28:01;;;;;;;9.15;2.85;;;;;;;22.15;48.58;100554.31;4139851;28;20392;-63
2022/07/30 01:30:07;;;;;;;5.47;2.33;;;;;;;22.12;48.81;100544.69;4146061;28;20128;-62
2022/07/30 01:32:11;;;;;;;4.82;2.10;;;;;;;22.11;48.70;100555.34;4146133;28;20041;-62
2022/07/30 01:34:16;;;;;;;4.30;2.30;;;;;;;22.07;48.71;100548.41;4146608;28;20045;-62
2022/07/30 01:36:22;;;;;;;6.18;2.53;;;;;;;22.03;48.63;100562.66;4138340;28;20030;-62
2022/07/30 01:38:27;;;;;;;4.25;2.45;;;;;;;22.01;48.75;100554.75;4140098;28;20116;-63
2022/07/30 01:40:38;;;;;;;5.35;2.53;;;;;;;21.99;48.87;100553.06;4145588;28;20068;-63
2022/07/30 01:42:44;;;;;;;3.38;2.28;;;;;;;21.93;48.85;100564.72;4145605;28;20038;-63
2022/07/30 01:44:49;;;;;;;4.07;2.50;;;;;;;21.89;48.98;100560.44;4138665;28;20045;-63
2022/07/30 01:46:54;;;;;;;8.18;2.60;;;;;;;21.86;48.81;100561.41;4145223;28;20508;-63
2022/07/30 01:48:57;;;;;;;;;;;;;;;21.66;48.99;100563.81;4159452;28;20092;-62
2022/07/30 01:51:05;;;;;;;6.40;2.38;;;;;;;21.72;49.15;100566.25;4145483;28;19921;-62
2022/07/30 01:53:11;;;;;;;7.15;2.67;;;;;;;21.71;49.24;100564.50;4161322;28;20069;-63
2022/07/30 01:55:25;;;;;;;4.68;2.50;;;;;;;21.75;48.95;100574.09;4153393;28;20492;-62
2022/07/30 01:57:29;;;;;;;4.50;2.08;;;;;;;21.73;48.71;100573.28;4144460;28;20042;-63
2022/07/30 01:59:35;;;;;;;6.95;2.65;;;;;;;21.73;48.52;100575.94;4146059;28;20034;-62
2022/07/30 02:01:38;;;;;;;6.82;2.47;;;;;;;21.70;48.58;100570.72;4145623;28;20046;-63
2022/07/30 02:03:41;;;;;;;4.43;2.15;;;;;;;21.68;48.53;100575.19;4162734;28;20140;-62
2022/07/30 02:05:50;;;;;;;5.40;2.30;;;;;;;21.65;48.53;100577.94;4146132;28;20042;-62
2022/07/30 02:07:58;;;;;;;10.32;2.92;;;;;;;21.66;48.86;100579.69;4176661;28;20055;-62
2022/07/30 02:10:05;;;;;;;4.90;2.20;;;;;;;21.68;47.88;100585.78;4146742;28;20041;-62
2022/07/30 02:12:30;;;;;;;7.70;2.40;;;;;;;21.61;47.72;100585.97;4145348;28;20593;-62
2022/07/30 02:14:46;;;;;;;4.05;2.35;;;;;;;21.63;47.77;100593.84;4141691;28;20034;-62
2022/07/30 02:16:54;;;;;;;6.03;2.72;;;;;;;21.71;47.33;100589.22;4146483;28;20044;-63
2022/07/30 02:19:05;;;;;;;5.00;2.47;;;;;;;21.72;47.28;100595.38;4129695;28;20491;-63
2022/07/30 02:21:12;;;;;;;3.70;2.00;;;;;;;21.68;47.46;100594.56;4138759;28;20129;-63
2022/07/30 02:23:19;;;;;;;5.30;2.72;;;;;;;21.68;47.07;100599.88;4161388;28;20522;-63
2022/07/30 02:25:23;;;;;;;7.10;2.78;;;;;;;21.70;47.03;100595.41;4158003;28;20141;-62
2022/07/30 02:27:30;;;;;;;5.00;2.65;;;;;;;21.70;46.99;100600.69;4126086;28;20056;-62
2022/07/30 02:29:36;;;;;;;4.85;2.40;;;;;;;21.69;47.07;100600.75;4161778;28;20103;-62
2022/07/30 02:31:41;;;;;;;9.15;3.08;;;;;;;21.72;47.21;100604.16;4144728;28;20523;-62
2022/07/30 02:33:49;;;;;;;4.82;2.03;;;;;;;21.70;47.30;100607.75;4139332;28;20045;-62
2022/07/30 02:35:54;;;;;;;4.15;2.30;;;;;;;21.70;47.47;100602.47;4150543;28;20531;-62
2022/07/30 02:37:59;;;;;;;7.65;2.65;;;;;;;21.72;47.24;100608.59;4152717;28;20034;-62
2022/07/30 02:40:05;;;;;;;7.90;2.28;;;;;;;21.74;47.25;100604.09;4134971;28;20132;-62
2022/07/30 02:42:09;;;;;;;4.55;2.65;;;;;;;21.76;47.57;100603.16;4143368;28;20053;-62
2022/07/30 02:44:12;;;;;;;6.82;3.30;;;;;;;21.79;46.92;100612.78;4175730;28;20044;-62
2022/07/30 02:46:17;;;;;;;6.00;3.17;;;;;;;21.79;46.90;100611.00;4149915;28;20570;-62
2022/07/30 02:48:41;;;;;;;5.13;2.60;;;;;;;21.79;47.00;100611.00;4152952;28;20567;-62
2022/07/30 02:50:45;;;;;;;6.40;3.10;;;;;;;21.83;46.99;100611.78;4143101;28;20475;-62
2022/07/30 02:52:50;;;;;;;4.18;2.40;;;;;;;21.82;46.81;100614.50;4141593;28;20072;-62
2022/07/30 02:54:56;;;;;;;;;;;;;;;21.72;46.90;100616.53;4152210;28;20464;-62
2022/07/30 02:57:01;;;;;;;4.63;2.90;;;;;;;21.73;46.99;100621.78;4150565;28;19976;-62
2022/07/30 02:59:06;;;;;;;9.48;3.20;;;;;;;21.76;46.49;100619.03;4155108;28;20496;-62
2022/07/30 03:01:09;;;;;;;;;;;;;;;21.57;47.13;100618.72;4152034;28;20041;-62
2022/07/30 03:03:16;;;;;;;6.35;3.25;;;;;;;21.66;46.81;100616.72;4183721;28;20489;-62
2022/07/30 03:05:21;;;;;;;10.98;3.28;;;;;;;21.68;47.22;100620.19;4150861;28;20041;-62
2022/07/30 03:07:25;;;;;;;7.30;3.22;;;;;;;21.70;47.00;100616.56;4134762;28;20049;-62
2022/07/30 03:09:29;;;;;;;10.15;4.32;;;;;;;21.71;46.69;100618.31;4149308;28;20452;-62
2022/07/30 03:11:55;;;;;;;8.50;3.63;;;;;;;21.66;46.69;100622.00;4163726;28;20128;-62
2022/07/30 03:13:58;;;;;;;7.65;3.63;;;;;;;21.64;46.85;100626.47;4175893;28;20295;-62
2022/07/30 03:16:04;;;;;;;7.65;3.78;;;;;;;21.63;47.16;100622.09;4159131;28;20120;-62
2022/07/30 03:18:10;;;;;;;6.45;3.53;;;;;;;21.59;47.11;100619.53;4183398;28;20045;-62
2022/07/30 03:20:17;;;;;;;9.13;3.55;;;;;;;21.54;47.75;100620.59;4144432;28;20034;-62
2022/07/30 03:22:25;;;;;;;6.82;2.78;;;;;;;21.51;48.10;100624.19;4156564;28;20059;-62
2022/07/30 03:24:37;;;;;;;7.80;2.83;;;;;;;21.43;48.49;100620.84;4157610;28;20037;-62
2022/07/30 03:26:46;;;;;;;6.63;3.20;;;;;;;21.43;48.26;100621.69;4140935;28;20064;-61
2022/07/30 03:28:50;;;;;;;6.80;3.63;;;;;;;21.43;48.15;100620.84;4151377;28;20033;-62
2022/07/30 03:30:53;;;;;;;5.53;3.50;;;;;;;21.41;48.34;100620.03;4150458;28;20034;-62
2022/07/30 03:32:57;;;;;;;8.10;3.63;;;;;;;21.41;48.13;100633.25;4157620;28;20311;-61
2022/07/30 03:35:01;;;;;;;7.33;2.97;;;;;;;21.41;48.08;100622.69;4166538;28;20582;-62
2022/07/30 03:37:11;;;;;;;7.55;4.15;;;;;;;21.42;48.03;100624.41;4155739;28;20106;-61
2022/07/30 03:39:16;;;;;;;10.48;3.88;;;;;;;21.42;47.63;100625.28;4158081;28;20037;-62
2022/07/30 03:41:21;;;;;;;7.65;3.45;;;;;;;21.41;48.25;100638.56;4150069;28;20042;-61
2022/07/30 03:43:25;;;;;;;7.45;3.63;;;;;;;21.41;48.54;100636.75;4160445;28;20116;-61
2022/07/30 03:45:37;;;;;;;6.10;3.13;;;;;;;21.39;48.53;100640.34;4159175;28;20041;-61
2022/07/30 03:47:43;;;;;;;5.95;3.10;;;;;;;21.36;48.67;100637.78;4159743;28;20057;-61
2022/07/30 03:49:48;;;;;;;6.93;2.85;;;;;;;21.28;49.14;100633.59;4165738;28;20049;-62
2022/07/30 03:51:52;;;;;;;5.07;3.20;;;;;;;21.23;49.19;100634.63;4144074;28;20546;-61
2022/07/30 03:53:56;;;;;;;10.07;3.72;;;;;;;21.19;49.19;100646.22;4141392;28;20040;-62
2022/07/30 03:56:09;;;;;;;6.38;2.92;;;;;;;21.20;49.11;100646.16;4151944;28;20048;-62
2022/07/30 03:58:31;;;;;;;7.28;3.45;;;;;;;21.11;49.34;100646.41;4143167;28;20045;-62
2022/07/30 04:00:40;;;;;;;7.55;3.97;;;;;;;21.07;49.44;100650.03;4140780;28;20381;-61
2022/07/30 04:02:44;;;;;;;5.05;3.15;;;;;;;21.01;49.32;100655.47;4147698;28;20487;-62
2022/07/30 04:05:07;;;;;;;5.75;3.28;;;;;;;20.91;49.80;100649.59;4141115;28;20061;-62
2022/07/30 04:07:10;;;;;;;7.57;3.60;;;;;;;20.90;50.07;100661.91;4178126;28;20048;-62
2022/07/30 04:09:13;;;;;;;8.07;3.78;;;;;;;20.85;50.53;100653.25;4148268;28;20076;-62
2022/07/30 04:11:18;;;;;;;6.75;3.72;;;;;;;20.82;51.18;100653.31;4143968;28;20076;-61
2022/07/30 04:13:42;;;;;;;6.38;3.60;;;;;;;20.80;51.46;100657.75;4143102;28;20038;-61
2022/07/30 04:15:52;;;;;;;7.63;3.35;;;;;;;20.80;51.63;100657.75;4136622;28;20546;-65
2022/07/30 04:18:17;;;;;;;7.43;3.92;;;;;;;20.75;52.23;100659.66;4147552;28;20060;-61
2022/07/30 04:20:24;;;;;;;5.38;2.90;;;;;;;20.73;52.58;100662.34;4158463;28;20495;-62
2022/07/30 04:22:31;;;;;;;7.53;3.60;;;;;;;20.69;53.13;100662.44;4146531;28;20539;-61
2022/07/30 04:24:36;;;;;;;7.93;3.80;;;;;;;20.69;53.21;100670.34;4147453;28;20124;-62
2022/07/30 04:26:41;;;;;;;9.23;3.60;;;;;;;20.70;53.55;100667.69;4148647;28;20038;-62
2022/07/30 04:28:45;;;;;;;5.80;3.28;;;;;;;20.74;53.38;100668.50;4159310;28;20053;-62
2022/07/30 04:30:48;;;;;;;6.95;3.30;;;;;;;20.71;53.68;100679.13;4163217;28;20068;-62
2022/07/30 04:32:52;;;;;;;7.07;3.83;;;;;;;20.72;54.09;100675.56;4143976;28;20037;-62
2022/07/30 04:35:27;;;;;;;6.72;3.05;;;;;;;20.66;54.25;100676.63;4162611;28;20597;-61
2022/07/30 04:37:54;;;;;;;8.82;3.50;;;;;;;20.61;54.44;100674.94;4173340;28;20039;-62
2022/07/30 04:39:57;;;;;;;5.55;3.58;;;;;;;20.63;54.66;100683.69;4146439;28;20512;-61
2022/07/30 04:42:02;;;;;;;4.60;3.05;;;;;;;20.63;54.55;100681.06;4141638;28;20042;-62
2022/07/30 04:44:10;;;;;;;7.32;3.40;;;;;;;20.58;54.81;100695.22;4160267;28;20124;-61
2022/07/30 04:46:20;;;;;;;8.98;4.22;;;;;;;20.62;55.06;100695.16;4163200;28;20132;-61
2022/07/30 04:48:27;;;;;;;6.03;3.33;;;;;;;20.61;55.12;100698.72;4146709;28;20133;-62
2022/07/30 04:50:46;;;;;;;7.28;3.30;;;;;;;20.58;55.57;100700.50;4147154;28;20049;-62
2022/07/30 04:52:53;;;;;;;8.57;4.20;;;;;;;20.61;55.83;100699.59;4143369;28;20407;-62
2022/07/30 04:55:05;;;;;;;6.15;3.17;;;;;;;20.67;55.64;100703.88;4144457;28;20068;-61
2022/07/30 04:57:10;;;;;;;9.25;4.20;;;;;;;20.69;55.87;100694.13;4177859;28;20080;-62
2022/07/30 04:59:16;;;;;;;6.63;3.42;;;;;;;20.69;55.87;100702.06;4146705;28;20057;-61
2022/07/30 05:01:23;;;;;;;6.85;3.92;;;;;;;20.66;56.30;100710.97;4171350;28;20052;-62
2022/07/30 05:03:43;;;;;;;6.43;3.95;;;;;;;20.60;56.64;100703.13;4152911;28;20095;-62
2022/07/30 05:05:47;;;;;;;6.00;3.58;;;;;;;20.67;56.72;100709.16;4140266;28;20035;-62
2022/07/30 05:07:54;;;;;;;6.10;3.58;;;;;;;20.72;56.60;100704.63;4144406;28;20084;-62
2022/07/30 05:09:57;;;;;;;8.75;3.85;;;;;;;20.75;57.22;100707.22;4147347;28;21225;-61
2022/07/30 05:12:01;;;;;;;5.35;3.35;;;;;;;20.80;57.30;100700.03;4129132;28;20042;-62
2022/07/30 05:14:06;;;;;;;8.40;3.72;;;;;;;20.86;57.15;100706.94;4162221;28;20064;-61
2022/07/30 05:16:11;;;;;;;6.78;3.95;;;;;;;20.89;56.96;100715.66;4147105;28;20038;-62
2022/07/30 05:18:14;;;;;;;4.78;3.10;;;;;;;20.93;56.92;100709.41;4155155;28;20044;-61
2022/07/30 05:20:18;;;;;;;6.63;3.80;;;;;;;20.95;56.89;100708.50;4147425;28;20060;-61
2022/07/30 05:22:40;;;;;;;8.38;4.15;;;;;;;20.93;57.27;100712.03;4141048;28;20045;-61
2022/07/30 05:24:52;;;;;;;6.05;3.38;;;;;;;20.91;57.31;100713.88;4138545;28;20030;-61
2022/07/30 05:26:55;;;;;;;9.30;4.10;;;;;;;20.94;57.08;100718.22;4138532;28;20526;-62
2022/07/30 05:29:01;;;;;;;7.55;3.85;;;;;;;20.98;57.18;100714.56;4162152;28;20667;-61
2022/07/30 05:31:22;;;;;;;6.40;3.65;;;;;;;21.02;57.51;100720.66;4146039;28;20081;-61
2022/07/30 05:33:31;;;;;;;5.72;3.63;;;;;;;21.05;57.21;100718.78;4156096;28;20037;-61
2022/07/30 05:35:47;;;;;;;6.68;3.70;;;;;;;21.08;57.49;100723.13;4161269;28;20092;-61
2022/07/30 05:37:50;;;;;;;6.28;3.33;;;;;;;21.12;57.26;100726.59;4176915;28;20052;-62
2022/07/30 05:39:54;;;;;;;9.05;3.88;;;;;;;21.16;56.57;100721.19;4147394;28;20096;-61
2022/07/30 05:42:31;;;;;;;10.35;4.13;;;;;;;21.22;55.97;100728.94;4142185;28;20081;-61
2022/07/30 05:44:34;;;;;;;7.22;4.10;;;;;;;21.25;55.90;100722.72;4145974;28;20038;-62
2022/07/30 05:46:39;;;;;;;10.25;4.30;;;;;;;21.32;55.31;100720.75;4146509;28;20100;-63
2022/07/30 05:48:42;;;;;;;;;;;;;;;21.21;55.53;100727.19;4146167;28;20034;-62
2022/07/30 05:50:45;;;;;;;8.52;4.18;;;;;;;21.30;54.91;100715.53;4161910;28;19960;-62
2022/07/30 05:52:48;;;;;;;6.47;4.05;;;;;;;21.38;54.92;100723.28;4160594;28;20053;-63
2022/07/30 05:55:11;;;;;;;11.10;4.40;;;;;;;21.39;54.77;100725.00;4129314;28;20070;-63
2022/07/30 05:57:41;;;;;;;6.30;4.03;;;;;;;21.43;54.20;100722.22;4145622;28;20070;-63
2022/07/30 05:59:45;;;;;;;8.00;4.38;;;;;;;21.47;53.38;100723.03;4162384;28;20561;-61
2022/07/30 06:02:05;;;;;;;6.68;4.43;;;;;;;21.53;52.67;100730.81;4172374;28;20038;-61
2022/07/30 06:04:26;;;;;;;7.30;4.50;;;;;;;21.57;52.41;100726.31;4154526;28;20092;-61
2022/07/30 06:06:35;;;;;;;8.45;4.47;;;;;;;21.66;52.16;100735.78;4159616;28;20120;-62
2022/07/30 06:08:38;;;;;;;8.95;4.30;;;;;;;21.67;52.67;100724.28;4154255;28;20124;-63
2022/07/30 06:10:40;;;;;;;6.93;3.92;;;;;;;21.71;52.64;100728.56;4156837;28;20043;-63
2022/07/30 06:12:46;;;;;;;8.80;4.22;;;;;;;21.75;52.25;100735.53;4141459;28;20105;-62
2022/07/30 06:14:51;;;;;;;10.45;4.82;;;;;;;21.78;52.02;100738.09;4153726;28;20038;-62
2022/07/30 06:17:00;;;;;;;9.77;4.53;;;;;;;21.85;51.95;100738.78;4154021;28;20038;-62
2022/07/30 06:19:19;;;;;;;8.75;4.72;;;;;;;21.87;51.71;100736.94;4175085;28;20499;-63
2022/07/30 06:21:22;;;;;;;9.30;4.47;;;;;;;21.88;51.56;100736.06;4146465;28;20077;-63
2022/07/30 06:23:37;;;;;;;10.77;4.25;;;;;;;21.91;51.39;100733.31;4146535;28;20042;-62
2022/07/30 06:26:09;;;;;;;7.85;4.28;;;;;;;21.90;51.44;100740.41;4146649;28;20065;-62
2022/07/30 06:28:12;;;;;;;7.00;3.83;;;;;;;21.99;51.68;100746.31;4159591;28;20037;-62
2022/07/30 06:30:35;;;;;;;6.68;3.67;;;;;;;22.05;52.35;100741.72;4142782;28;20092;-59
2022/07/30 06:32:39;;;;;;;8.13;4.10;;;;;;;22.35;53.73;100743.53;4146400;28;20116;-61
2022/07/30 06:34:43;;;;;;;8.57;3.30;;;;;;;22.71;53.47;100745.97;4145567;28;20512;-63
2022/07/30 06:36:46;;;;;;;6.85;3.90;;;;;;;22.99;51.35;100743.28;4146248;28;20046;-62
2022/07/30 06:38:59;;;;;;;8.40;3.42;;;;;;;23.12;50.92;100741.13;4138114;28;20042;-62
2022/07/30 06:41:25;;;;;;;8.13;4.40;;;;;;;23.29;49.05;100753.81;4145444;28;20057;-59
2022/07/30 06:43:32;;;;;;;8.52;3.70;;;;;;;23.27;49.89;100751.22;4127415;28;20133;-61
2022/07/30 06:45:54;;;;;;;8.70;3.90;;;;;;;23.37;49.72;100745.63;4146108;28;20030;-62
2022/07/30 06:48:05;;;;;;;5.65;3.22;;;;;;;23.43;49.16;100745.38;4137887;28;20045;-61
2022/07/30 06:50:10;;;;;;;11.57;4.30;;;;;;;23.42;48.26;100748.94;4128127;28;20082;-60
2022/07/30 06:52:13;;;;;;;10.95;4.07;;;;;;;23.39;48.25;100754.38;4145273;28;20300;-61
2022/07/30 06:54:24;;;;;;;10.27;3.85;;;;;;;23.47;48.33;100755.84;4124139;28;20134;-60
2022/07/30 06:56:41;;;;;;;8.20;3.55;;;;;;;23.61;48.34;100758.03;4167224;28;20041;-61
2022/07/30 06:58:45;;;;;;;10.35;3.50;;;;;;;23.66;48.12;100756.06;4181694;28;20041;-61
2022/07/30 07:01:07;;;;;;;6.95;3.65;;;;;;;23.70;47.88;100763.00;4140127;28;20125;-59
2022/07/30 07:03:13;;;;;;;11.80;4.22;;;;;;;23.70;47.50;100765.66;4145401;28;20034;-61
2022/07/30 07:05:19;;;;;;;17.20;4.53;;;;;;;23.66;47.22;100763.16;4121771;28;20042;-61
2022/07/30 07:07:22;;;;;;;7.80;3.72;;;;;;;23.63;47.58;100764.13;4146320;28;20096;-61
2022/07/30 07:09:45;;;;;;;8.55;3.88;;;;;;;23.57;47.47;100767.00;4176586;28;20049;-60
2022/07/30 07:12:20;;;;;;;8.73;4.57;;;;;;;23.53;47.85;100768.03;4140326;28;20435;-62
2022/07/30 07:14:23;;;;;;;8.95;4.53;;;;;;;23.31;47.46;100766.13;4155173;28;20105;-63
2022/07/30 07:16:26;;;;;;;8.88;4.30;;;;;;;23.19;48.01;100769.19;4134517;28;20611;-61
2022/07/30 07:18:30;;;;;;;10.77;4.25;;;;;;;23.28;47.93;100766.22;4162554;28;20069;-61
2022/07/30 07:20:39;;;;;;;15.10;4.93;;;;;;;23.48;47.21;100770.84;4162545;28;20092;-60
2022/07/30 07:22:43;;;;;;;7.45;3.30;;;;;;;23.42;47.63;100771.06;4146055;28;20503;-60
2022/07/30 07:24:47;;;;;;;9.88;3.63;;;;;;;23.46;47.72;100777.97;4147757;28;20044;-61
2022/07/30 07:26:55;;;;;;;9.45;4.22;;;;;;;23.47;47.93;100771.75;4180160;28;20086;-61
2022/07/30 07:28:58;;;;;;;10.60;5.88;;;;;;;23.79;46.51;100766.25;4148580;28;20041;-60
2022/07/30 07:31:08;;;;;;;9.95;4.05;;;;;;;23.62;48.10;100772.16;4145143;28;20088;-61
2022/07/30 07:33:12;;;;;;;9.68;3.60;;;;;;;23.67;47.58;100767.53;4171453;28;20421;-61
2022/07/30 07:35:20;;;;;;;10.05;3.90;;;;;;;23.68;47.67;100771.94;4147663;28;20050;-61
2022/07/30 07:37:26;;;;;;;6.00;3.90;;;;;;;23.70;47.02;100775.41;4147746;28;20037;-62
2022/07/30 07:39:30;;;;;;;8.15;3.88;;;;;;;23.76;47.10;100774.31;4147556;28;20050;-62
2022/07/30 07:41:33;;;;;;;11.40;4.53;;;;;;;23.73;47.22;100764.69;4135030;28;20133;-61
2022/07/30 07:43:53;;;;;;;12.82;4.85;;;;;;;23.90;46.92;100769.41;4146063;28;20053;-61
2022/07/30 07:46:05;;;;;;;6.90;3.42;;;;;;;23.91;46.81;100763.16;4146760;28;20518;-61
2022/07/30 07:48:10;;;;;;;7.30;3.67;;;;;;;23.97;46.92;100776.22;4146480;28;20088;-61
2022/07/30 07:50:39;;;;;;;10.55;6.22;;;;;;;24.16;45.07;100760.47;4144315;28;20532;-62
2022/07/30 07:52:48;;;;;;;10.93;4.90;;;;;;;24.29;44.55;100768.84;4145976;28;20045;-62
2022/07/30 07:54:50;;;;;;;;;;;;;;;24.35;44.27;100771.25;4147574;28;20338;-61
2022/07/30 07:56:55;;;;;;;9.82;5.97;;;;;;;24.19;44.71;100765.66;4128188;28;20012;-61
2022/07/30 07:59:11;;;;;;;10.35;5.47;;;;;;;24.11;45.16;100769.53;4173132;28;20040;-62
2022/07/30 08:01:16;;;;;;;9.80;5.30;;;;;;;24.17;45.07;100769.31;4145506;28;20053;-60
2022/07/30 08:03:38;;;;;;;8.95;5.05;;;;;;;24.37;44.48;100766.75;4137536;28;20411;-60
2022/07/30 08:06:00;;;;;;;18.58;6.38;;;;;;;24.34;43.55;100766.00;4147279;28;20069;-60
2022/07/30 08:08:24;;;;;;;10.07;4.65;;;;;;;24.19;44.14;100765.66;4145950;28;20388;-61
2022/07/30 08:10:50;;;;;;;8.05;4.00;;;;;;;24.19;44.77;100772.78;4131269;28;20038;-60
2022/07/30 08:13:11;;;;;;;15.65;5.85;;;;;;;24.36;44.11;100770.34;4147352;28;20068;-63
2022/07/30 08:15:53;;;;;;;11.80;5.75;;;;;;;24.38;44.10;100765.81;4148114;28;20069;-61
2022/07/30 08:18:06;;;;;;;8.23;4.22;;;;;;;24.34;44.02;100772.19;4147193;28;20069;-61
2022/07/30 08:20:15;;;;;;;6.93;3.72;;;;;;;24.43;43.99;100776.31;4147033;28;20034;-62
2022/07/30 08:22:18;;;;;;;9.32;4.10;;;;;;;24.50;44.03;100771.59;4161582;28;20044;-61
2022/07/30 08:24:23;;;;;;;9.25;4.18;;;;;;;24.56;43.97;100766.03;4176916;28;20041;-61
2022/07/30 08:26:25;;;;;;;;;;;;;;;24.53;43.96;100761.72;4136927;28;20443;-61
2022/07/30 08:28:28;;;;;;;7.30;3.83;;;;;;;24.61;44.04;100766.75;4145172;28;19952;-63
2022/07/30 08:30:41;;;;;;;9.38;4.18;;;;;;;24.71;43.65;100765.47;4146895;28;20102;-62
2022/07/30 08:32:44;;;;;;;8.15;3.17;;;;;;;24.74;43.68;100761.81;4141053;28;20042;-63
2022/07/30 08:34:48;;;;;;;6.63;3.67;;;;;;;24.78;43.53;100770.53;4149169;28;20041;-66
2022/07/30 08:36:51;;;;;;;4.50;3.15;;;;;;;24.80;43.56;100760.72;4127216;28;20078;-69
2022/07/30 08:38:54;;;;;;;6.32;3.10;;;;;;;24.80;43.46;100761.56;4146615;28;20050;-69
2022/07/30 08:40:58;;;;;;;6.38;3.50;;;;;;;24.91;43.18;100758.47;4146144;28;20065;-66
2022/07/30 08:43:04;;;;;;;6.78;3.55;;;;;;;24.86;42.76;100763.13;4144710;28;20072;-65
2022/07/30 08:45:09;;;;;;;6.32;3.35;;;;;;;24.97;42.52;100757.34;4161885;28;20037;-63
2022/07/30 08:47:18;;;;;;;7.68;3.13;;;;;;;24.95;42.87;100759.22;4146397;28;20030;-64
2022/07/30 08:49:39;;;;;;;9.15;3.65;;;;;;;25.20;42.01;100759.06;4139795;28;20037;-65
2022/07/30 08:51:43;;;;;;;8.73;3.10;;;;;;;25.21;42.03;100759.00;4144012;28;20411;-62
2022/07/30 08:54:09;;;;;;;7.55;3.10;;;;;;;25.26;42.37;100756.13;4137698;28;20057;-61
2022/07/30 08:56:14;;;;;;;7.82;3.35;;;;;;;25.29;41.84;100756.03;4145060;28;20037;-62
2022/07/30 08:58:26;;;;;;;6.07;3.05;;;;;;;25.34;41.60;100755.84;4143156;28;20041;-64
2022/07/30 09:00:30;;;;;;;5.53;3.08;;;;;;;25.33;41.62;100762.97;4141751;28;20068;-63
2022/07/30 09:02:33;;;;;;;5.53;3.03;;;;;;;25.46;41.34;100763.31;4175482;28;20211;-64
2022/07/30 09:04:38;;;;;;;5.63;3.42;;;;;;;25.48;41.05;100755.25;4147722;28;20072;-63
2022/07/30 09:06:41;;;;;;;10.13;4.00;;;;;;;25.74;40.83;100752.31;4141638;28;20035;-61
2022/07/30 09:08:45;;;;;;;7.97;3.60;;;;;;;25.55;40.90;100756.72;4141800;28;20058;-62
2022/07/30 09:10:48;;;;;;;5.55;3.47;;;;;;;25.51;41.07;100752.44;4177269;28;20288;-63
2022/07/30 09:12:57;;;;;;;4.05;2.75;;;;;;;25.50;41.63;100756.91;4142635;28;20099;-62
2022/07/30 09:15:10;;;;;;;7.35;3.13;;;;;;;25.54;40.92;100749.66;4134967;28;20046;-64
2022/07/30 09:17:13;;;;;;;7.97;3.47;;;;;;;25.64;40.41;100750.13;4142151;28;20046;-65
2022/07/30 09:19:17;;;;;;;6.43;3.17;;;;;;;25.65;40.70;100751.88;4142863;28;20210;-67
2022/07/30 09:21:23;;;;;;;8.65;3.30;;;;;;;25.61;41.12;100759.09;4153842;28;20564;-65
2022/07/30 09:23:56;;;;;;;5.75;3.38;;;;;;;25.49;40.89;100757.00;4140369;28;20056;-65
2022/07/30 09:26:17;;;;;;;4.68;2.55;;;;;;;25.24;41.53;100755.34;4141625;28;20045;-66
2022/07/30 09:28:30;;;;;;;7.45;3.55;;;;;;;25.21;41.56;100753.66;4143675;28;20384;-65
2022/07/30 09:30:53;;;;;;;6.38;3.03;;;;;;;25.20;41.47;100767.94;4146828;28;20038;-64
2022/07/30 09:33:15;;;;;;;7.55;3.65;;;;;;;25.24;41.33;100758.84;4144014;28;20068;-62
2022/07/30 09:35:56;;;;;;;5.65;2.70;;;;;;;25.42;41.11;100757.25;4140465;28;20069;-64
2022/07/30 09:38:17;;;;;;;7.05;3.20;;;;;;;25.65;40.56;100758.03;4145295;28;20474;-63
2022/07/30 09:40:26;;;;;;;3.85;2.40;;;;;;;25.88;40.30;100758.81;4143313;28;20439;-60
2022/07/30 09:43:05;;;;;;;9.40;3.63;;;;;;;26.31;38.27;100748.88;4142825;28;20045;-71
2022/07/30 09:45:12;;;;;;;4.32;2.53;;;;;;;26.28;38.92;100752.56;4175296;28;20094;-62
2022/07/30 09:47:31;;;;;;;6.30;2.33;;;;;;;26.48;38.18;100748.09;4123034;28;20104;-63
2022/07/30 09:49:34;;;;;;;7.13;2.80;;;;;;;26.30;38.05;100747.16;4137303;28;20042;-63
2022/07/30 09:51:38;;;;;;;5.37;2.60;;;;;;;26.34;38.05;100755.88;4140723;28;20043;-61
2022/07/30 09:54:05;;;;;;;7.00;3.03;;;;;;;26.47;38.14;100744.56;4157240;28;20833;-63
2022/07/30 09:56:24;;;;;;;5.88;2.83;;;;;;;26.81;36.38;100745.63;4145454;28;20037;-64
2022/07/30 09:58:41;;;;;;;11.48;3.83;;;;;;;26.88;36.21;100743.50;4139172;28;20096;-64
2022/07/30 10:01:13;;;;;;;3.80;2.10;;;;;;;26.55;37.58;100743.34;4140222;28;20049;-62
2022/07/30 10:03:41;;;;;;;4.40;2.30;;;;;;;26.60;37.70;100746.63;4140680;28;20147;-63